createdAt,value
2019-01-21T08:47:03.631Z,-1.00
2019-01-21T09:32:03.131Z,-1.00
2019-01-21T09:37:03.079Z,-1.00
2019-01-21T10:00:02.821Z,-1.00
2019-01-21T10:35:02.427Z,0.04
2019-01-21T10:36:02.416Z,0.12
2019-01-21T10:37:02.405Z,0.11
2019-01-21T10:38:02.392Z,0.14
2019-01-21T10:39:02.385Z,0.14
2019-01-21T10:40:02.371Z,0.29
2019-01-21T10:41:02.372Z,0.29
2019-01-21T10:42:02.346Z,0.40
2019-01-21T10:43:02.341Z,0.47
2019-01-21T10:44:02.324Z,0.48
2019-01-21T10:45:02.320Z,0.44
2019-01-21T10:46:02.300Z,0.23
2019-01-21T10:47:02.291Z,0.02
2019-01-21T10:48:02.287Z,0.23
2019-01-21T10:49:02.269Z,0.27
2019-01-21T10:50:02.256Z,0.30
2019-01-21T10:51:02.245Z,0.41
2019-01-21T10:52:02.232Z,0.41
2019-01-21T10:53:02.224Z,0.50
2019-01-21T10:54:02.217Z,0.55
2019-01-21T10:55:02.227Z,0.66
2019-01-21T10:56:02.236Z,0.79
2019-01-21T10:57:02.225Z,0.75
2019-01-21T10:58:02.169Z,0.75
2019-01-21T10:59:02.175Z,0.81
2019-01-21T11:00:02.174Z,0.90
2019-01-21T11:01:04.130Z,0.80
2019-01-21T11:02:02.179Z,0.83
2019-01-21T11:03:02.692Z,0.80
2019-01-21T11:04:02.098Z,0.54
2019-01-21T11:05:02.088Z,0.69
2019-01-21T11:06:02.078Z,0.83
2019-01-21T11:07:02.067Z,0.91
2019-01-21T11:08:02.069Z,1.12
2019-01-21T11:09:02.041Z,1.20
2019-01-21T11:10:02.048Z,1.38
2019-01-21T11:11:02.020Z,1.39
2019-01-21T11:12:02.011Z,1.39
2019-01-21T11:13:01.999Z,1.27
2019-01-21T11:14:01.985Z,1.07
2019-01-21T11:15:01.977Z,1.20
2019-01-21T11:16:01.973Z,1.22
2019-01-21T11:17:01.951Z,1.01
2019-01-21T11:18:01.939Z,0.63
2019-01-21T11:19:01.929Z,0.63
2019-01-21T11:20:04.160Z,0.59
2019-01-21T11:21:01.907Z,0.55
2019-01-21T11:22:01.896Z,0.75
2019-01-21T11:23:01.887Z,0.89
2019-01-21T11:24:01.874Z,1.08
2019-01-21T11:25:01.863Z,1.12
2019-01-21T11:26:01.851Z,1.15
2019-01-21T11:27:01.841Z,0.93
2019-01-21T11:28:01.835Z,0.90
2019-01-21T11:29:01.822Z,0.65
2019-01-21T11:30:01.839Z,0.69
2019-01-21T11:31:01.796Z,0.66
2019-01-21T11:32:01.784Z,0.71
2019-01-21T11:33:01.782Z,0.63
2019-01-21T11:34:01.762Z,0.68
2019-01-21T11:35:01.751Z,0.80
2019-01-21T11:36:01.745Z,0.86
2019-01-21T11:37:01.731Z,0.79
2019-01-21T11:38:01.716Z,0.79
2019-01-21T11:39:01.705Z,0.91
2019-01-21T11:40:01.695Z,0.91
2019-01-21T11:41:01.684Z,0.79
2019-01-21T11:42:01.674Z,0.80
2019-01-21T11:43:01.666Z,0.55
2019-01-21T11:44:01.655Z,0.26
2019-01-21T11:45:01.643Z,0.32
2019-01-21T11:46:01.649Z,0.15
2019-01-21T11:47:01.818Z,0.14
2019-01-21T11:48:01.607Z,0.22
2019-01-21T11:49:01.593Z,0.35
2019-01-21T11:50:01.588Z,0.25
2019-01-21T11:51:01.570Z,0.27
2019-01-21T11:52:01.559Z,0.27
2019-01-21T11:53:01.547Z,0.29
2019-01-21T11:54:01.538Z,0.51
2019-01-21T11:55:01.542Z,0.55
2019-01-21T11:56:01.523Z,0.69
2019-01-21T11:57:01.504Z,0.81
2019-01-21T11:58:01.493Z,0.68
2019-01-21T11:59:01.488Z,0.75
2019-01-21T12:00:01.474Z,1.17
2019-01-21T12:01:01.461Z,1.45
2019-01-21T12:02:01.451Z,1.59
2019-01-21T12:03:01.436Z,1.69
2019-01-21T12:04:01.433Z,1.71
2019-01-21T12:05:01.423Z,2.20
2019-01-21T12:06:01.413Z,2.28
2019-01-21T12:07:01.395Z,2.81
2019-01-21T12:08:01.388Z,3.22
2019-01-21T12:09:01.369Z,3.45
2019-01-21T12:10:01.359Z,3.51
2019-01-21T12:11:01.355Z,3.63
2019-01-21T12:12:01.339Z,3.37
2019-01-21T12:13:01.326Z,3.65
2019-01-21T12:14:01.318Z,4.13
2019-01-21T12:15:01.305Z,4.39
2019-01-21T12:16:01.297Z,4.84
2019-01-21T12:17:01.280Z,5.03
2019-01-21T12:18:01.277Z,4.46
2019-01-21T12:19:01.257Z,3.47
2019-01-21T12:20:01.266Z,3.05
2019-01-21T12:21:01.238Z,2.94
2019-01-21T12:22:01.229Z,3.11
2019-01-21T12:23:03.210Z,3.25
2019-01-21T12:24:01.202Z,3.20
2019-01-21T12:25:01.195Z,3.37
2019-01-21T12:26:01.178Z,3.40
2019-01-21T12:27:01.167Z,3.36
2019-01-21T12:28:01.154Z,3.44
2019-01-21T12:29:02.028Z,3.77
2019-01-21T12:30:01.134Z,3.79
2019-01-21T12:31:01.126Z,3.59
2019-01-21T12:32:01.110Z,3.83
2019-01-21T12:33:01.098Z,3.98
2019-01-21T12:34:01.085Z,3.81
2019-01-21T12:35:01.082Z,3.29
2019-01-21T12:36:01.063Z,3.36
2019-01-21T12:37:01.053Z,2.73
2019-01-21T12:38:01.045Z,2.31
2019-01-21T12:39:01.033Z,2.68
2019-01-21T12:40:01.021Z,2.86
2019-01-21T12:41:01.011Z,2.72
2019-01-21T12:42:01.000Z,3.00
2019-01-21T12:43:00.987Z,3.20
2019-01-21T12:44:00.973Z,3.54
2019-01-21T12:45:00.964Z,3.63
2019-01-21T12:46:00.948Z,4.02
2019-01-21T12:47:00.936Z,4.12
2019-01-21T12:48:00.935Z,3.75
2019-01-21T12:49:00.913Z,3.84
2019-01-21T12:50:00.903Z,4.10
2019-01-21T12:51:00.891Z,4.66
2019-01-21T12:52:00.887Z,4.59
2019-01-21T12:53:00.869Z,4.39
2019-01-21T12:54:00.858Z,4.74
2019-01-21T12:55:00.849Z,5.06
2019-01-21T12:56:00.840Z,5.32
2019-01-21T12:57:00.825Z,5.61
2019-01-21T12:58:01.829Z,5.75
2019-01-21T12:59:00.798Z,5.62
2019-01-21T13:00:00.792Z,5.29
2019-01-21T13:01:00.786Z,5.10
2019-01-21T13:02:00.772Z,5.18
2019-01-21T13:03:00.753Z,4.90
2019-01-21T13:04:00.744Z,5.02
2019-01-21T13:05:00.731Z,5.20
2019-01-21T13:06:00.725Z,4.61
2019-01-21T13:07:00.709Z,4.27
2019-01-21T13:08:00.708Z,4.30
2019-01-21T13:09:00.684Z,4.30
2019-01-21T13:10:00.673Z,3.79
2019-01-21T13:11:00.664Z,4.13
2019-01-21T13:12:00.663Z,4.67
2019-01-21T13:13:00.643Z,4.78
2019-01-21T13:14:01.770Z,4.41
2019-01-21T13:15:00.615Z,4.66
2019-01-21T13:16:00.825Z,4.77
2019-01-21T13:17:00.592Z,4.66
2019-01-21T13:18:00.583Z,5.03
2019-01-21T13:19:00.572Z,4.57
2019-01-21T13:20:00.559Z,4.57
2019-01-21T13:21:00.548Z,4.75
2019-01-21T13:22:00.536Z,4.74
2019-01-21T13:23:00.525Z,5.20
2019-01-21T13:24:00.543Z,5.58
2019-01-21T13:25:00.501Z,5.77
2019-01-21T13:26:00.492Z,6.13
2019-01-21T13:27:00.478Z,6.44
2019-01-21T13:28:00.468Z,6.67
2019-01-21T13:29:00.456Z,6.90
2019-01-21T13:30:00.443Z,6.92
2019-01-21T13:31:00.432Z,7.29
2019-01-21T13:32:00.426Z,7.31
2019-01-21T13:33:00.410Z,7.21
2019-01-21T13:34:00.397Z,7.22
2019-01-21T13:35:00.389Z,7.25
2019-01-21T13:36:00.377Z,7.28
2019-01-21T13:37:00.362Z,6.77
2019-01-21T13:38:00.351Z,6.03
2019-01-21T13:39:00.973Z,5.90
2019-01-21T13:40:00.328Z,6.08
2019-01-21T13:41:00.318Z,5.33
2019-01-21T13:42:00.309Z,5.05
2019-01-21T13:43:00.296Z,4.87
2019-01-21T13:44:00.285Z,4.60
2019-01-21T13:45:00.276Z,4.31
2019-01-21T13:46:00.264Z,4.20
2019-01-21T13:47:00.258Z,4.23
2019-01-21T13:48:00.246Z,4.36
2019-01-21T13:49:00.229Z,4.30
2019-01-21T13:50:00.248Z,4.48
2019-01-21T13:51:00.207Z,4.60
2019-01-21T13:52:00.198Z,4.30
2019-01-21T13:53:00.191Z,4.26
2019-01-21T13:54:00.172Z,4.48
2019-01-21T13:55:00.216Z,4.66
2019-01-21T13:56:00.152Z,4.60
2019-01-21T13:57:00.139Z,4.48
2019-01-21T13:58:00.128Z,3.75
2019-01-21T13:59:00.116Z,3.63
2019-01-21T14:00:00.168Z,3.44
2019-01-21T14:01:00.099Z,3.41
2019-01-21T14:02:00.083Z,3.54
2019-01-21T14:03:00.070Z,3.51
2019-01-21T14:04:00.063Z,3.59
2019-01-21T14:05:00.051Z,3.77
2019-01-21T14:06:00.038Z,3.59
2019-01-21T14:07:00.031Z,3.71
2019-01-21T14:08:00.013Z,3.75
2019-01-21T14:09:00.007Z,3.61
2019-01-21T14:09:59.991Z,3.41
2019-01-21T14:10:59.986Z,3.33
2019-01-21T14:11:59.970Z,3.26
2019-01-21T14:12:59.957Z,2.99
2019-01-21T14:13:59.946Z,2.72
2019-01-21T14:15:01.936Z,2.65
2019-01-21T14:15:59.931Z,2.42
2019-01-21T14:16:59.912Z,2.42
2019-01-21T14:17:59.901Z,2.23
2019-01-21T14:18:59.891Z,2.31
2019-01-21T14:19:59.880Z,2.36
2019-01-21T14:20:59.865Z,2.57
2019-01-21T14:21:59.861Z,2.57
2019-01-21T14:22:59.844Z,2.41
2019-01-21T14:23:59.831Z,2.31
2019-01-21T14:24:59.820Z,2.24
2019-01-21T14:25:59.810Z,2.18
2019-01-21T14:26:59.796Z,2.41
2019-01-21T14:27:59.788Z,2.59
2019-01-21T14:28:59.774Z,2.39
2019-01-21T14:29:59.765Z,2.18
2019-01-21T14:30:59.752Z,2.18
2019-01-21T14:31:59.745Z,2.00
2019-01-21T14:32:59.731Z,1.78
2019-01-21T14:33:59.717Z,1.92
2019-01-21T14:34:59.705Z,1.85
2019-01-21T14:36:00.552Z,1.85
2019-01-21T14:36:59.689Z,2.00
2019-01-21T14:37:59.671Z,2.09
2019-01-21T14:38:59.678Z,2.24
2019-01-21T14:39:59.654Z,2.24
2019-01-21T14:40:59.641Z,2.00
2019-01-21T14:41:59.630Z,1.62
2019-01-21T14:42:59.615Z,1.56
2019-01-21T14:43:59.609Z,1.55
2019-01-21T14:44:59.604Z,1.73
2019-01-21T14:45:59.588Z,1.71
2019-01-21T14:46:59.568Z,1.82
2019-01-21T14:47:59.564Z,1.73
2019-01-21T14:49:04.558Z,1.99
2019-01-21T14:49:59.540Z,1.89
2019-01-21T14:50:59.561Z,1.98
2019-01-21T14:51:59.513Z,2.00
2019-01-21T14:52:59.506Z,1.95
2019-01-21T14:53:59.503Z,1.80
2019-01-21T14:54:59.485Z,1.67
2019-01-21T14:55:59.469Z,1.56
2019-01-21T14:56:59.469Z,1.71
2019-01-21T14:57:59.471Z,1.46
2019-01-21T14:58:59.520Z,1.38
2019-01-21T14:59:59.430Z,1.42
2019-01-21T15:00:59.448Z,1.45
2019-01-21T15:01:59.409Z,1.42
2019-01-21T15:02:59.403Z,1.39
2019-01-21T15:03:59.384Z,1.35
2019-01-21T15:04:59.375Z,1.30
2019-01-21T15:05:59.368Z,1.20
2019-01-21T15:06:59.347Z,1.23
2019-01-21T15:07:59.360Z,1.22
2019-01-21T15:08:59.385Z,1.12
2019-01-21T15:09:59.380Z,1.27
2019-01-21T15:10:59.302Z,1.12
2019-01-21T15:11:59.290Z,1.20
2019-01-21T15:12:59.345Z,1.34
2019-01-21T15:13:59.341Z,1.27
2019-01-21T15:14:59.258Z,1.23
2019-01-21T15:15:59.255Z,1.08
2019-01-21T15:16:59.275Z,1.11
2019-01-21T15:17:59.229Z,0.93
2019-01-21T15:18:59.278Z,0.86
2019-01-21T15:19:59.202Z,0.91
2019-01-21T15:20:59.243Z,0.93
2019-01-21T15:21:59.190Z,0.83
2019-01-21T15:22:59.252Z,0.89
2019-01-21T15:23:59.247Z,0.87
2019-01-21T15:24:59.149Z,0.83
2019-01-21T15:26:03.409Z,0.95
2019-01-21T15:26:59.180Z,0.84
2019-01-21T15:27:59.111Z,0.89
2019-01-21T15:28:59.179Z,0.80
2019-01-21T15:29:59.176Z,0.87
2019-01-21T15:30:59.097Z,0.75
2019-01-21T15:31:59.072Z,0.89
2019-01-21T15:32:59.120Z,0.87
2019-01-21T15:33:59.044Z,0.91
2019-01-21T15:34:59.038Z,0.97
2019-01-21T15:35:59.055Z,0.97
2019-01-21T15:36:59.043Z,0.95
2019-01-21T15:37:59.114Z,0.95
2019-01-21T15:39:59.028Z,0.95
2019-01-21T15:40:59.002Z,0.97
2019-01-21T15:41:59.031Z,0.89
2019-01-21T15:42:59.041Z,0.89
2019-01-21T15:43:59.003Z,0.89
2019-01-21T15:46:59.009Z,0.66
2019-01-21T15:49:58.870Z,0.44
2019-01-21T15:51:05.003Z,0.41
2019-01-21T15:54:23.298Z,0.26
2019-01-21T15:56:23.275Z,0.43
2019-01-21T15:57:24.222Z,0.30
2019-01-21T16:01:23.237Z,0.23
2019-01-21T16:05:23.189Z,0.15
2019-01-21T16:07:23.195Z,0.11
2019-01-21T16:08:23.200Z,0.18
2019-01-21T16:18:23.041Z,0.09
2019-01-21T16:24:22.967Z,0.08
2019-01-21T16:25:22.956Z,0.17
2019-01-21T17:59:46.397Z,-1.00
2019-01-21T18:04:46.342Z,-1.00
2019-01-21T18:56:45.777Z,-1.00
2019-01-21T19:28:45.425Z,-1.00
2019-01-21T19:29:46.118Z,-1.00
2019-01-21T19:35:45.349Z,-1.00
2019-01-21T19:48:45.212Z,-1.00
2019-01-21T20:15:44.911Z,-1.00
2019-01-21T20:21:44.850Z,-1.00
2019-01-21T20:23:44.826Z,-1.00
2019-01-21T20:27:44.781Z,-1.00
2019-01-21T22:43:43.292Z,-2.00
2019-01-21T22:50:43.219Z,-2.00
2019-01-21T23:26:42.823Z,-2.00
